Time;durP1;ratioP1;P1;durP2;ratioP2;P2;SDS_P1;SDS_P2;PMS_P1;PMS_P2;Temp;Humidity;BMP_temperature;BMP_pressure;BME280_temperature;BME280_humidity;BME280_pressure;Samples;Min_cycle;Max_cycle;Signal;HPM_P1;HPM_P2
2024/01/12 00:01:12;;;;;;;38.63;21.95;;;;;;;-0.10;100.00;103412.59;5035673;28;20115;-77
2024/01/12 00:03:37;;;;;;;42.25;23.10;;;;;;;-0.22;100.00;103386.91;5035898;28;20056;-78
2024/01/12 00:06:03;;;;;;;41.67;24.33;;;;;;;-0.10;100.00;103414.25;5035514;28;20033;-78
2024/01/12 00:08:28;;;;;;;43.17;23.67;;;;;;;-0.09;100.00;103410.91;5035643;28;20024;-78
2024/01/12 00:10:54;;;;;;;40.05;22.70;;;;;;;-0.15;100.00;103414.16;5033903;28;20033;-78
2024/01/12 00:13:19;;;;;;;40.33;22.73;;;;;;;-0.12;100.00;103420.97;5035725;28;20539;-77
2024/01/12 00:15:45;;;;;;;38.03;22.50;;;;;;;-0.25;100.00;103397.00;5035219;28;20064;-78
2024/01/12 00:18:10;;;;;;;41.33;24.02;;;;;;;-0.13;100.00;103404.03;5035414;28;20029;-79
2024/01/12 00:20:39;;;;;;;41.78;23.65;;;;;;;-0.16;100.00;103403.97;5035441;28;20083;-78
2024/01/12 00:23:04;;;;;;;40.60;23.40;;;;;;;-0.12;100.00;103420.97;5018266;28;20033;-80
2024/01/12 00:25:30;;;;;;;39.60;23.13;;;;;;;-0.13;100.00;103420.13;5035382;28;20029;-80
2024/01/12 00:27:55;;;;;;;37.00;22.23;;;;;;;-0.10;100.00;103420.22;5035175;28;20386;-80
2024/01/12 00:30:20;;;;;;;41.97;23.90;;;;;;;-0.09;100.00;103413.44;5035157;28;20549;-79
2024/01/12 00:32:46;;;;;;;40.72;23.70;;;;;;;-0.11;100.00;103415.94;5035159;28;20028;-78
2024/01/12 00:35:11;;;;;;;50.15;22.52;;;;;;;-0.09;100.00;103423.59;5017660;28;20029;-77
2024/01/12 00:37:36;;;;;;;42.05;24.02;;;;;;;-0.31;100.00;103392.63;5035010;28;20478;-78
2024/01/12 00:40:02;;;;;;;39.13;22.35;;;;;;;-0.09;100.00;103424.47;5034833;28;20101;-78
2024/01/12 00:42:27;;;;;;;41.80;23.02;;;;;;;-0.18;100.00;103411.56;5035071;28;20052;-77
2024/01/12 00:44:53;;;;;;;38.67;22.77;;;;;;;-0.24;100.00;103402.94;5034893;28;20053;-79
2024/01/12 00:47:18;;;;;;;37.35;22.73;;;;;;;-0.08;100.00;103418.56;5034798;28;20079;-77
2024/01/12 00:49:43;;;;;;;38.70;22.55;;;;;;;-0.16;100.00;103403.97;5035068;28;20021;-78
2024/01/12 00:52:09;;;;;;;40.33;23.15;;;;;;;-0.11;100.00;103415.94;5034902;28;20024;-77
2024/01/12 00:54:34;;;;;;;38.45;22.85;;;;;;;-0.11;100.00;103413.38;5034807;28;20513;-77
2024/01/12 00:56:59;;;;;;;38.90;22.95;;;;;;;-0.37;100.00;103374.72;5034729;28;20057;-78
2024/01/12 00:59:25;;;;;;;38.38;22.83;;;;;;;-0.16;100.00;103411.59;5034748;28;20097;-77
2024/01/12 01:01:50;;;;;;;39.97;22.02;;;;;;;-0.13;100.00;103419.25;5033402;28;20044;-78
2024/01/12 01:04:15;;;;;;;41.75;22.95;;;;;;;-0.21;100.00;103406.38;5034518;28;20029;-77
2024/01/12 01:06:41;;;;;;;42.17;23.00;;;;;;;-0.24;100.00;103393.63;5034648;28;20025;-77
2024/01/12 01:09:06;;;;;;;39.90;22.60;;;;;;;-0.10;100.00;103415.13;5034559;28;20040;-77
2024/01/12 01:11:31;;;;;;;37.83;23.15;;;;;;;-0.12;100.00;103426.91;5034263;28;20438;-77
2024/01/12 01:13:57;;;;;;;40.05;23.23;;;;;;;-0.13;100.00;103435.34;5034268;28;20057;-77
2024/01/12 01:16:23;;;;;;;38.30;21.77;;;;;;;-0.11;100.00;103441.31;5034393;28;20052;-78
2024/01/12 01:18:49;;;;;;;37.33;21.70;;;;;;;-0.10;100.00;103434.56;5034242;28;20104;-77
2024/01/12 01:21:14;;;;;;;40.22;23.02;;;;;;;-0.40;100.00;103394.94;5033953;28;20026;-77
2024/01/12 01:23:40;;;;;;;38.92;22.13;;;;;;;-0.21;100.00;103418.22;5034345;28;20021;-76
2024/01/12 01:26:05;;;;;;;38.30;21.65;;;;;;;-0.15;100.00;103429.41;5034051;28;20473;-77
2024/01/12 01:28:30;;;;;;;35.15;21.73;;;;;;;-0.11;100.00;103438.78;5034028;28;20033;-77
2024/01/12 01:30:56;;;;;;;37.15;21.42;;;;;;;-0.15;100.00;103437.00;5033989;28;20355;-77
2024/01/12 01:33:21;;;;;;;37.28;21.30;;;;;;;-0.21;100.00;103434.31;5033998;28;20028;-77
2024/01/12 01:35:46;;;;;;;35.58;21.50;;;;;;;-0.08;100.00;103471.03;5033849;28;20061;-78
2024/01/12 01:38:12;;;;;;;36.63;21.40;;;;;;;-0.18;100.00;103443.72;5032482;28;20049;-76
2024/01/12 01:40:37;;;;;;;34.80;21.15;;;;;;;-0.24;100.00;103443.56;5033836;28;20025;-77
2024/01/12 01:43:09;;;;;;;38.40;21.85;;;;;;;-0.31;100.00;103435.78;5034147;28;20385;-77
2024/01/12 01:45:36;;;;;;;39.83;21.67;;;;;;;-0.09;100.00;103466.78;5033872;28;20040;-77
2024/01/12 01:48:05;;;;;;;42.42;22.70;;;;;;;-0.17;100.00;103453.91;5033884;28;20021;-77
2024/01/12 01:50:32;;;;;;;37.80;21.35;;;;;;;-0.23;100.00;103447.81;5032798;28;20083;-78
2024/01/12 01:52:57;;;;;;;37.10;21.83;;;;;;;-0.12;100.00;103461.63;5033797;28;20033;-79
2024/01/12 01:55:23;;;;;;;38.90;21.80;;;;;;;-0.13;100.00;103467.50;5033480;28;20033;-80
2024/01/12 01:57:50;;;;;;;40.47;22.67;;;;;;;-0.14;100.00;103453.09;5033582;28;20021;-78
2024/01/12 02:00:17;;;;;;;38.47;23.00;;;;;;;-0.12;100.00;103454.00;5033568;28;20372;-81
2024/01/12 02:02:42;;;;;;;37.50;21.08;;;;;;;-0.23;100.00;103432.56;5033670;28;20027;-78
2024/01/12 02:05:08;;;;;;;36.95;21.08;;;;;;;-0.24;100.00;103434.25;5033272;28;20029;-78
2024/01/12 02:07:37;;;;;;;36.90;20.70;;;;;;;-0.14;100.00;103448.03;5033240;28;20040;-78
2024/01/12 02:10:03;;;;;;;36.17;20.13;;;;;;;-0.16;100.00;103437.84;5016529;28;20034;-82
2024/01/12 02:12:29;;;;;;;36.85;21.50;;;;;;;-0.14;100.00;103437.88;5033256;28;20037;-79
2024/01/12 02:14:55;;;;;;;35.00;21.48;;;;;;;-0.15;100.00;103436.16;5033474;28;20025;-78
2024/01/12 02:17:21;;;;;;;33.95;21.23;;;;;;;-0.14;100.00;103435.31;5033229;28;20029;-82
2024/01/12 02:19:46;;;;;;;34.47;20.48;;;;;;;-0.17;100.00;103431.03;5033154;28;20096;-78
2024/01/12 02:22:11;;;;;;;36.63;20.33;;;;;;;-0.15;100.00;103438.69;5032779;28;20104;-80
2024/01/12 02:24:37;;;;;;;38.53;21.77;;;;;;;-0.15;100.00;103437.00;5033303;28;20496;-82
2024/01/12 02:27:02;;;;;;;36.20;20.23;;;;;;;-0.15;100.00;103442.09;5033007;28;20022;-83
2024/01/12 02:29:28;;;;;;;36.90;20.10;;;;;;;-0.11;100.00;103448.09;5033175;28;20029;-78
2024/01/12 02:31:54;;;;;;;38.28;21.58;;;;;;;-0.10;100.00;103442.19;5010897;23;20054;-82
2024/01/12 02:34:20;;;;;;;38.28;22.10;;;;;;;-0.11;100.00;103443.88;5011936;28;20034;-82
2024/01/12 02:36:45;;;;;;;35.70;19.98;;;;;;;-0.11;100.00;103441.31;5013020;28;20029;-83
2024/01/12 02:39:11;;;;;;;37.95;21.90;;;;;;;-0.12;100.00;103449.78;5012904;28;20029;-82
2024/01/12 02:41:36;;;;;;;38.45;21.15;;;;;;;-0.11;100.00;103446.41;5013272;28;20030;-78
2024/01/12 02:44:01;;;;;;;38.72;20.90;;;;;;;-0.12;100.00;103436.22;5012930;28;20079;-82
2024/01/12 02:46:27;;;;;;;36.30;21.90;;;;;;;-0.23;100.00;103423.28;5013254;28;20030;-82
2024/01/12 02:48:52;;;;;;;34.95;20.50;;;;;;;-0.10;100.00;103435.44;5013086;28;20022;-82
2024/01/12 02:51:17;;;;;;;35.05;21.27;;;;;;;-0.07;100.00;103442.28;5012753;28;20037;-83
2024/01/12 02:53:42;;;;;;;40.88;22.23;;;;;;;-0.13;100.00;103424.34;5012779;28;20021;-81
2024/01/12 02:56:09;;;;;;;41.03;22.45;;;;;;;-0.11;100.00;103421.00;5012946;28;20128;-86
2024/01/12 02:58:35;;;;;;;39.15;22.45;;;;;;;-0.07;100.00;103424.50;5013181;28;20034;-82
2024/01/12 03:01:03;;;;;;;40.13;22.17;;;;;;;-0.08;100.00;103423.63;5012983;28;20049;-82
2024/01/12 03:03:28;;;;;;;36.55;21.83;;;;;;;-0.07;100.00;103425.34;5012615;28;20052;-82
2024/01/12 03:05:53;;;;;;;38.10;21.35;;;;;;;-0.04;100.00;103425.41;5012725;28;20029;-81
2024/01/12 03:08:18;;;;;;;36.78;21.63;;;;;;;-0.03;100.00;103419.50;5012620;28;20041;-82
2024/01/12 03:10:44;;;;;;;36.75;21.10;;;;;;;-0.03;100.00;103424.59;5013111;28;20030;-82
2024/01/12 03:13:09;;;;;;;35.10;21.15;;;;;;;-0.20;100.00;103390.31;5012951;28;20398;-80
2024/01/12 03:15:34;;;;;;;37.03;21.33;;;;;;;-0.05;100.00;103420.31;5012884;28;20414;-82
2024/01/12 03:18:00;;;;;;;37.63;20.77;;;;;;;-0.08;100.00;103408.41;5012606;28;20034;-79
2024/01/12 03:20:25;;;;;;;35.53;21.20;;;;;;;-0.07;100.00;103411.78;5012791;28;20057;-83
2024/01/12 03:22:51;;;;;;;38.72;21.48;;;;;;;-0.08;100.00;103405.84;5012572;28;20105;-82
2024/01/12 03:25:17;;;;;;;36.53;21.05;;;;;;;-0.08;100.00;103412.63;5012821;28;20490;-83
2024/01/12 03:27:42;;;;;;;34.42;19.80;;;;;;;-0.10;100.00;103406.63;5012526;28;20053;-82
2024/01/12 03:30:08;;;;;;;33.80;19.63;;;;;;;-0.09;100.00;103410.91;5012709;28;20104;-78
2024/01/12 03:32:33;;;;;;;35.83;21.10;;;;;;;-0.09;100.00;103418.53;5030025;28;20096;-78
2024/01/12 03:34:59;;;;;;;36.97;20.75;;;;;;;-0.21;100.00;103403.00;5032355;28;20041;-78
2024/01/12 03:37:24;;;;;;;35.20;20.70;;;;;;;-0.16;100.00;103409.03;5032262;28;20029;-78
2024/01/12 03:39:50;;;;;;;38.10;22.30;;;;;;;-0.07;100.00;103412.66;5032298;28;20029;-79
2024/01/12 03:42:15;;;;;;;35.08;21.35;;;;;;;-0.06;100.00;103405.88;5032281;28;20067;-78
2024/01/12 03:44:40;;;;;;;39.03;21.23;;;;;;;-0.34;100.00;103361.22;5032029;28;20105;-78
2024/01/12 03:47:06;;;;;;;40.58;22.55;;;;;;;-0.20;100.00;103385.25;5032168;28;20080;-79
2024/01/12 03:49:31;;;;;;;39.55;22.05;;;;;;;-0.28;100.00;103374.09;5032391;28;20104;-77
2024/01/12 03:51:57;;;;;;;39.25;22.40;;;;;;;-0.04;100.00;103406.78;5032229;28;20115;-78
2024/01/12 03:54:23;;;;;;;37.40;20.38;;;;;;;-0.05;100.00;103405.91;5031978;28;20033;-80
2024/01/12 03:56:49;;;;;;;37.15;21.80;;;;;;;-0.02;100.00;103394.97;5032446;28;20021;-82
2024/01/12 04:01:45;;;;;;;36.20;21.75;;;;;;;-0.05;100.00;103403.38;4995721;28;20042;-82
2024/01/12 04:04:20;;;;;;;35.10;20.63;;;;;;;-0.64;100.00;103303.88;4992730;28;20035;-79
2024/01/12 04:06:45;;;;;;;39.78;22.55;;;;;;;-0.65;100.00;103297.09;4992629;28;20022;-82
2024/01/12 04:09:11;;;;;;;40.67;22.65;;;;;;;-0.05;100.00;103389.81;4992367;28;20561;-78
2024/01/12 04:11:37;;;;;;;40.45;23.08;;;;;;;-0.14;100.00;103385.38;4992687;28;20034;-81
2024/01/12 04:14:03;;;;;;;38.15;21.75;;;;;;;-0.06;100.00;103396.59;4993585;28;20030;-82
2024/01/12 04:16:28;;;;;;;38.25;21.40;;;;;;;-0.04;100.00;103394.94;4996322;28;20018;-81
2024/01/12 04:18:54;;;;;;;37.42;21.95;;;;;;;-0.06;100.00;103395.72;4996191;28;20102;-79
2024/01/12 04:21:19;;;;;;;35.92;21.80;;;;;;;-0.08;100.00;103390.63;4996083;28;20018;-78
2024/01/12 04:23:44;;;;;;;36.05;21.75;;;;;;;-0.07;100.00;103391.47;4995571;28;20101;-78
2024/01/12 04:26:10;;;;;;;40.20;21.52;;;;;;;-0.04;100.00;103396.63;4995854;28;20466;-78
2024/01/12 04:28:35;;;;;;;40.72;22.70;;;;;;;-0.07;100.00;103396.56;4995744;28;20034;-78
2024/01/12 04:31:02;;;;;;;38.65;22.00;;;;;;;-0.10;100.00;103404.97;4995776;28;20113;-78
2024/01/12 04:33:27;;;;;;;38.55;21.13;;;;;;;-0.01;100.00;103409.38;4995882;28;20113;-77
2024/01/12 04:35:53;;;;;;;41.15;21.90;;;;;;;-0.01;100.00;103407.69;4995837;28;20054;-77
2024/01/12 04:38:19;;;;;;;38.45;22.98;;;;;;;-0.06;100.00;103396.59;4995681;28;20029;-77
2024/01/12 04:40:44;;;;;;;43.92;22.88;;;;;;;-0.04;100.00;103407.63;4995489;28;20755;-77
2024/01/12 04:43:10;;;;;;;39.05;21.65;;;;;;;-0.12;100.00;103387.97;4995427;28;20034;-77
2024/01/12 04:45:35;;;;;;;39.53;22.38;;;;;;;-0.03;100.00;103401.72;4995701;28;20030;-78
2024/01/12 04:48:00;;;;;;;40.10;22.40;;;;;;;-0.04;100.00;103405.09;4995540;28;20023;-77
2024/01/12 04:50:26;;;;;;;36.90;22.85;;;;;;;-0.02;100.00;103402.59;4995467;28;20058;-77
2024/01/12 04:52:52;;;;;;;41.03;21.40;;;;;;;-0.10;100.00;103384.66;4995495;28;20042;-77
2024/01/12 04:55:18;;;;;;;37.55;21.67;;;;;;;-0.02;100.00;103394.97;4995063;28;20058;-76
2024/01/12 04:57:43;;;;;;;42.83;23.08;;;;;;;0.00;100.00;103403.50;4995096;28;20382;-78
2024/01/12 05:00:09;;;;;;;38.83;22.98;;;;;;;-0.20;100.00;103366.63;4993893;28;20034;-78
2024/01/12 05:02:34;;;;;;;40.55;22.98;;;;;;;-0.17;100.00;103371.78;4977175;28;20553;-77
2024/01/12 05:04:59;;;;;;;40.30;22.35;;;;;;;-0.10;100.00;103379.56;4995125;28;20033;-78
2024/01/12 05:07:25;;;;;;;37.92;22.00;;;;;;;0.03;100.00;103392.53;4995151;28;20519;-78
2024/01/12 05:09:50;;;;;;;39.92;23.02;;;;;;;0.05;100.00;103389.19;4977010;28;20129;-78
2024/01/12 05:12:15;;;;;;;38.33;22.23;;;;;;;-0.06;100.00;103367.78;4994992;28;20034;-78
2024/01/12 05:14:41;;;;;;;39.83;21.83;;;;;;;0.08;100.00;103368.06;4995050;28;20113;-78
2024/01/12 05:17:07;;;;;;;37.47;21.75;;;;;;;0.09;100.00;103380.81;4995377;28;20066;-77
2024/01/12 05:19:32;;;;;;;39.85;21.98;;;;;;;0.11;100.00;103383.41;4995102;28;20027;-77
2024/01/12 05:21:58;;;;;;;35.95;21.50;;;;;;;-0.15;100.00;103342.19;4994910;28;20553;-78
2024/01/12 05:24:23;;;;;;;40.67;22.77;;;;;;;0.10;100.00;103377.47;4994570;28;20034;-77
2024/01/12 05:26:48;;;;;;;38.90;22.33;;;;;;;-0.01;100.00;103358.56;4975606;28;20097;-77
2024/01/12 05:29:14;;;;;;;35.90;17.90;;;;;;;0.10;100.00;103367.31;4994681;28;20026;-77
2024/01/12 05:31:43;;;;;;;38.92;21.35;;;;;;;0.18;100.00;103372.53;4994985;28;20082;-79
2024/01/12 05:34:08;;;;;;;40.28;21.58;;;;;;;0.19;100.00;103370.00;4976817;28;20046;-78
2024/01/12 05:36:33;;;;;;;37.50;21.25;;;;;;;0.16;100.00;103358.94;4994648;28;20026;-77
2024/01/12 05:38:59;;;;;;;37.13;21.45;;;;;;;0.21;100.00;103375.16;4994505;28;20029;-78
2024/01/12 05:41:24;;;;;;;34.15;21.25;;;;;;;0.20;100.00;103384.47;4994423;28;20018;-77
2024/01/12 05:43:49;;;;;;;34.85;19.77;;;;;;;0.18;100.00;103383.53;4994614;28;20024;-77
2024/01/12 05:46:15;;;;;;;36.92;20.20;;;;;;;0.09;100.00;103363.03;4994536;28;20026;-79
2024/01/12 05:48:40;;;;;;;33.25;19.13;;;;;;;0.21;100.00;103391.25;4994491;28;20470;-78
2024/01/12 05:51:06;;;;;;;40.60;21.30;;;;;;;0.24;100.00;103393.84;4994483;28;20027;-78
2024/01/12 05:53:31;;;;;;;35.65;19.55;;;;;;;0.25;100.00;103392.16;4994228;28;20022;-78
2024/01/12 05:55:56;;;;;;;35.50;19.42;;;;;;;0.23;100.00;103394.69;4994115;28;20034;-78
2024/01/12 05:58:21;;;;;;;37.80;20.70;;;;;;;0.06;100.00;103373.13;4994018;28;20030;-78
2024/01/12 06:00:47;;;;;;;33.25;19.50;;;;;;;0.21;100.00;103395.47;4993929;28;20046;-79
2024/01/12 06:03:13;;;;;;;33.42;20.35;;;;;;;0.17;100.00;103392.00;4994272;28;20022;-82
2024/01/12 06:05:40;;;;;;;34.42;19.92;;;;;;;0.21;100.00;103401.41;4994059;28;20046;-80
2024/01/12 06:08:05;;;;;;;34.22;19.15;;;;;;;0.14;100.00;103386.84;4993975;28;20026;-81
2024/01/12 06:10:30;;;;;;;33.38;19.63;;;;;;;0.19;100.00;103382.72;4993853;28;20129;-79
2024/01/12 06:12:56;;;;;;;34.45;19.45;;;;;;;0.21;100.00;103398.88;4993876;28;20030;-80
2024/01/12 06:15:21;;;;;;;34.03;18.83;;;;;;;0.23;100.00;103399.75;4993931;28;20541;-82
2024/01/12 06:17:46;;;;;;;36.40;19.13;;;;;;;0.24;100.00;103406.56;4993913;28;20449;-78
2024/01/12 06:20:12;;;;;;;35.45;19.40;;;;;;;0.20;100.00;103398.84;4993095;28;20077;-80
2024/01/12 06:22:40;;;;;;;34.70;17.63;;;;;;;0.10;100.00;103376.56;4994112;28;20069;-80
2024/01/12 06:25:05;;;;;;;31.90;19.00;;;;;;;0.23;100.00;103393.81;4993553;28;20521;-81
2024/01/12 06:27:31;;;;;;;33.13;18.40;;;;;;;0.23;100.00;103398.91;4993494;28;20062;-79
2024/01/12 06:29:56;;;;;;;33.33;18.55;;;;;;;0.33;100.00;103405.88;4993584;28;20038;-79
2024/01/12 06:32:21;;;;;;;36.50;18.80;;;;;;;0.33;100.00;103398.25;4993934;28;20057;-80
2024/01/12 06:34:47;;;;;;;31.27;17.90;;;;;;;0.33;100.00;103405.03;4993463;28;20026;-80
2024/01/12 06:37:12;;;;;;;34.72;18.05;;;;;;;0.31;100.00;103401.59;4993377;28;20030;-81
2024/01/12 06:39:39;;;;;;;35.75;18.08;;;;;;;0.34;100.00;103406.75;4975776;28;20053;-81
2024/01/12 06:42:05;;;;;;;32.05;17.77;;;;;;;0.30;100.00;103400.75;4993331;28;20046;-80
2024/01/12 06:44:30;;;;;;;32.13;17.42;;;;;;;0.37;100.00;103425.44;4993259;28;20069;-82
2024/01/12 06:46:55;;;;;;;28.95;18.17;;;;;;;0.37;100.00;103422.91;4993491;28;20030;-81
2024/01/12 06:49:21;;;;;;;32.08;18.58;;;;;;;0.09;100.00;103363.03;4993268;28;20030;-78
2024/01/12 06:51:46;;;;;;;35.55;18.10;;;;;;;0.31;100.00;103406.69;4993516;28;20038;-78
2024/01/12 06:54:12;;;;;;;33.25;17.27;;;;;;;0.27;100.00;103393.91;4993285;28;20026;-78
2024/01/12 06:56:38;;;;;;;29.08;16.95;;;;;;;0.29;100.00;103399.00;4993089;28;20022;-79
2024/01/12 06:59:04;;;;;;;31.95;18.27;;;;;;;0.30;100.00;103388.03;4993177;28;20019;-80
2024/01/12 07:01:30;;;;;;;30.75;16.02;;;;;;;0.47;100.00;103404.47;4993159;28;20046;-80
2024/01/12 07:03:55;;;;;;;40.05;17.70;;;;;;;0.49;100.00;103402.84;4993175;28;20150;-84
2024/01/12 07:06:20;;;;;;;30.40;16.02;;;;;;;0.45;100.00;103390.03;4993229;28;20470;-79
2024/01/12 07:08:46;;;;;;;29.85;15.35;;;;;;;0.53;100.00;103402.06;4993259;28;20045;-81
2024/01/12 07:11:11;;;;;;;26.92;15.40;;;;;;;0.47;100.00;103385.81;4993124;28;20018;-81
2024/01/12 07:13:36;;;;;;;28.88;15.27;;;;;;;0.55;100.00;103397.88;4993176;28;20054;-77
2024/01/12 07:16:02;;;;;;;29.05;15.30;;;;;;;0.46;100.00;103387.50;4992773;28;20034;-77
2024/01/12 07:18:27;;;;;;;30.38;16.17;;;;;;;0.58;100.00;103404.69;4975258;28;20109;-78
2024/01/12 07:20:55;;;;;;;29.65;15.05;;;;;;;0.60;100.00;103392.03;4993096;28;20489;-78
2024/01/12 07:23:20;;;;;;;31.10;14.85;;;;;;;0.31;100.00;103350.78;4993113;28;20242;-78
2024/01/12 07:25:45;;;;;;;28.02;13.98;;;;;;;0.34;100.00;103350.84;4993083;28;20034;-78
2024/01/12 07:28:11;;;;;;;29.90;14.73;;;;;;;0.55;100.00;103390.22;4992953;28;20054;-77
2024/01/12 07:30:36;;;;;;;28.35;15.48;;;;;;;0.38;100.00;103356.00;4992731;28;20038;-79
2024/01/12 07:33:01;;;;;;;29.88;16.40;;;;;;;0.58;100.00;103397.06;4995860;28;20026;-77
2024/01/12 07:35:27;;;;;;;30.00;17.13;;;;;;;0.61;100.00;103391.19;5013171;28;20034;-78
2024/01/12 07:37:52;;;;;;;27.88;16.00;;;;;;;0.62;100.00;103395.44;5012573;28;20034;-78
2024/01/12 07:40:17;;;;;;;28.58;15.32;;;;;;;0.63;100.00;103400.56;5012652;28;20061;-79
2024/01/12 07:42:43;;;;;;;33.53;17.25;;;;;;;0.63;100.00;103405.66;5012404;28;20030;-78
2024/01/12 07:45:10;;;;;;;32.90;16.35;;;;;;;0.65;100.00;103398.91;5012165;28;20037;-76
2024/01/12 07:47:35;;;;;;;27.75;16.40;;;;;;;0.65;100.00;103398.03;5012051;28;20030;-76
2024/01/12 07:50:01;;;;;;;35.30;17.33;;;;;;;0.63;100.00;103398.03;5014863;28;20095;-78
2024/01/12 07:52:26;;;;;;;33.25;17.50;;;;;;;0.66;100.00;103390.44;5015981;28;20539;-76
2024/01/12 07:54:52;;;;;;;28.60;17.10;;;;;;;0.67;100.00;103383.66;5015982;28;20053;-75
2024/01/12 07:57:17;;;;;;;36.90;17.35;;;;;;;0.71;100.00;103388.84;4997772;28;20470;-74
2024/01/12 07:59:42;;;;;;;30.35;17.10;;;;;;;0.75;100.00;103383.00;5014635;28;20049;-77
2024/01/12 08:02:08;;;;;;;28.98;16.85;;;;;;;0.78;100.00;103385.56;5015674;28;20073;-76
2024/01/12 08:04:33;;;;;;;30.63;17.00;;;;;;;0.77;100.00;103380.47;5015726;28;20466;-77
2024/01/12 08:06:58;;;;;;;29.30;16.83;;;;;;;0.79;100.00;103386.47;5015893;28;20054;-77
2024/01/12 08:09:23;;;;;;;31.30;17.02;;;;;;;0.71;100.00;103372.75;5014269;28;20061;-77
2024/01/12 08:11:49;;;;;;;32.08;16.88;;;;;;;0.82;100.00;103396.69;5015643;28;20100;-77
2024/01/12 08:14:15;;;;;;;28.48;15.93;;;;;;;0.73;100.00;103382.09;5015638;28;20497;-76
2024/01/12 08:16:40;;;;;;;28.77;16.83;;;;;;;0.76;100.00;103384.69;5015725;28;20022;-76
2024/01/12 08:19:05;;;;;;;30.02;17.10;;;;;;;0.86;100.00;103404.38;4997462;28;20590;-78
2024/01/12 08:21:31;;;;;;;28.92;16.67;;;;;;;0.71;100.00;103377.84;5015682;28;20449;-76
2024/01/12 08:23:56;;;;;;;29.77;17.10;;;;;;;0.79;100.00;103389.88;5015505;28;20533;-77
2024/01/12 08:26:21;;;;;;;28.83;15.88;;;;;;;0.88;100.00;103390.84;5015631;28;20029;-76
2024/01/12 08:28:51;;;;;;;30.08;16.90;;;;;;;0.97;100.00;103402.03;5015193;28;20037;-76
2024/01/12 08:31:17;;;;;;;29.48;15.38;;;;;;;1.01;100.00;103406.38;5015468;28;20109;-76
2024/01/12 08:33:44;;;;;;;33.05;16.90;;;;;;;0.89;100.00;103385.81;5015380;28;20116;-77
2024/01/12 08:36:10;;;;;;;32.95;18.45;;;;;;;1.07;100.00;103410.69;5015470;28;20034;-78
2024/01/12 08:38:35;;;;;;;31.20;16.77;;;;;;;1.11;100.00;103410.78;5015351;28;20501;-77
2024/01/12 08:41:01;;;;;;;31.27;17.23;;;;;;;1.04;100.00;103397.94;5013598;28;20038;-77
2024/01/12 08:43:26;;;;;;;33.58;17.75;;;;;;;1.19;100.00;103427.91;5015157;28;20029;-77
2024/01/12 08:45:52;;;;;;;32.08;17.17;;;;;;;1.18;100.00;103408.34;5013463;28;20041;-77
2024/01/12 08:48:19;;;;;;;33.38;17.35;;;;;;;1.09;100.00;103398.88;5015662;28;20030;-75
2024/01/12 08:50:44;;;;;;;33.03;18.75;;;;;;;1.25;100.00;103411.03;5015039;28;20033;-78
2024/01/12 08:53:10;;;;;;;27.48;17.88;;;;;;;1.06;100.00;103358.09;5014960;28;20029;-78
2024/01/12 08:55:35;;;;;;;33.55;18.42;;;;;;;1.06;100.00;103347.91;5014868;28;20032;-77
2024/01/12 08:58:01;;;;;;;37.80;19.38;;;;;;;1.44;100.00;103407.94;5014459;28;20030;-77
2024/01/12 09:00:26;;;;;;;33.22;18.88;;;;;;;1.38;100.00;103399.38;5014509;28;20133;-77
2024/01/12 09:02:51;;;;;;;30.95;18.88;;;;;;;1.50;100.00;103417.38;5014864;28;20032;-77
2024/01/12 09:05:17;;;;;;;30.00;18.27;;;;;;;1.56;100.00;103419.16;5014722;28;20034;-77
2024/01/12 09:07:42;;;;;;;29.58;17.77;;;;;;;1.55;100.00;103405.56;5014775;28;20036;-77
2024/01/12 09:10:08;;;;;;;33.20;17.60;;;;;;;1.65;100.00;103412.53;5014754;28;20021;-79
2024/01/12 09:12:33;;;;;;;28.60;17.20;;;;;;;1.56;100.00;103383.50;5014600;28;20061;-77
2024/01/12 09:14:59;;;;;;;28.80;16.73;;;;;;;1.67;100.00;103385.41;5014609;28;20056;-78
2024/01/12 09:17:24;;;;;;;33.72;17.80;;;;;;;1.47;100.00;103350.25;5014640;28;20465;-78
2024/01/12 09:19:50;;;;;;;27.17;16.38;;;;;;;1.66;100.00;103386.22;5014377;28;20499;-76
2024/01/12 09:22:15;;;;;;;33.90;16.88;;;;;;;1.78;100.00;103397.44;5014676;28;20046;-77
2024/01/12 09:24:41;;;;;;;32.67;16.80;;;;;;;1.82;100.00;103389.00;5014275;28;20026;-77
2024/01/12 09:27:06;;;;;;;26.23;13.95;;;;;;;1.91;100.00;103397.63;5014495;28;20437;-77
2024/01/12 09:29:32;;;;;;;30.98;14.23;;;;;;;1.76;100.00;103371.94;5012555;28;20030;-78
2024/01/12 09:31:57;;;;;;;28.27;14.63;;;;;;;1.90;100.00;103395.06;5012646;28;20088;-76
2024/01/12 09:34:22;;;;;;;25.05;13.05;;;;;;;1.94;100.00;103410.41;5014325;28;20486;-76
2024/01/12 09:36:47;;;;;;;28.17;14.32;;;;;;;1.96;100.00;103406.19;5013986;28;20035;-78
2024/01/12 09:39:14;;;;;;;27.50;15.48;;;;;;;1.99;100.00;103397.75;5012409;28;20033;-76
2024/01/12 09:41:47;;;;;;;29.15;14.98;;;;;;;1.98;100.00;103399.44;5014639;28;20026;-75
2024/01/12 09:44:18;;;;;;;27.73;15.40;;;;;;;2.03;100.00;103398.63;5014054;28;20026;-73
2024/01/12 09:46:56;;;;;;;27.95;15.35;;;;;;;2.09;100.00;103396.19;5014039;28;20026;-75
2024/01/12 09:49:23;;;;;;;25.92;15.63;;;;;;;2.03;100.00;103383.34;5013565;28;20026;-77
2024/01/12 09:51:49;;;;;;;25.05;15.52;;;;;;;2.16;100.00;103400.50;5013890;28;20065;-75
2024/01/12 09:54:14;;;;;;;27.65;15.93;;;;;;;2.16;100.00;103387.75;5013716;28;20065;-77
2024/01/12 09:56:40;;;;;;;28.48;14.63;;;;;;;2.23;100.00;103392.09;4996148;28;20045;-77
2024/01/12 09:59:06;;;;;;;29.67;15.95;;;;;;;2.27;100.00;103397.28;5013629;28;20022;-75
2024/01/12 10:01:32;;;;;;;28.98;15.98;;;;;;;2.31;100.00;103400.72;5013278;28;20517;-75
2024/01/12 10:03:58;;;;;;;28.10;15.10;;;;;;;2.15;100.00;103365.66;5013328;28;20355;-75
2024/01/12 10:06:25;;;;;;;28.25;15.45;;;;;;;2.20;100.00;103382.75;5013490;28;20033;-78
2024/01/12 10:08:50;;;;;;;27.92;14.73;;;;;;;2.16;100.00;103370.78;5013642;28;20079;-74
2024/01/12 10:11:15;;;;;;;29.98;15.32;;;;;;;2.17;100.00;103374.22;5013440;28;20021;-76
2024/01/12 10:13:40;;;;;;;26.95;15.23;;;;;;;2.29;100.00;103394.75;5013158;28;20112;-75
2024/01/12 10:16:07;;;;;;;32.83;15.80;;;;;;;2.38;100.00;103394.00;5013286;28;20081;-76
2024/01/12 10:18:33;;;;;;;27.48;14.23;;;;;;;2.40;100.00;103403.38;5013054;28;20435;-75
2024/01/12 10:20:58;;;;;;;30.02;15.65;;;;;;;2.26;100.00;103375.19;5013059;28;20117;-78
2024/01/12 10:23:26;;;;;;;28.58;15.50;;;;;;;2.27;100.00;103382.00;5013424;28;20053;-75
2024/01/12 10:25:59;;;;;;;26.27;15.20;;;;;;;2.39;100.00;103394.03;5013165;28;20537;-77
2024/01/12 10:28:29;;;;;;;30.25;14.57;;;;;;;2.54;100.00;103406.94;4995440;28;20426;-76
2024/01/12 10:30:55;;;;;;;25.25;14.30;;;;;;;2.58;100.00;103410.41;5013115;28;20061;-78
2024/01/12 10:33:20;;;;;;;26.35;14.50;;;;;;;2.55;100.00;103402.69;5013023;28;20038;-76
2024/01/12 10:35:51;;;;;;;29.15;15.30;;;;;;;2.52;100.00;103395.88;5013145;28;20374;-76
2024/01/12 10:38:19;;;;;;;24.17;13.77;;;;;;;2.50;100.00;103395.00;5012852;28;20076;-75
2024/01/12 10:40:45;;;;;;;28.30;14.65;;;;;;;2.50;100.00;103391.59;5013267;28;20026;-75
2024/01/12 10:43:16;;;;;;;26.65;13.75;;;;;;;2.44;100.00;103371.97;5011393;28;20367;-75
2024/01/12 10:45:45;;;;;;;24.65;14.40;;;;;;;2.39;100.00;103360.88;5012740;28;20497;-76
2024/01/12 10:48:12;;;;;;;30.60;14.63;;;;;;;2.56;100.00;103384.88;5034322;23;20053;-78
2024/01/12 10:50:42;;;;;;;30.15;16.00;;;;;;;2.61;100.00;103384.06;5032621;28;20104;-77
2024/01/12 10:53:41;;;;;;;32.53;16.08;;;;;;;2.69;100.00;103387.56;5032511;28;20056;-77
2024/01/12 10:56:07;;;;;;;24.70;14.40;;;;;;;2.75;100.00;103380.84;5032778;28;20041;-76
2024/01/12 10:58:34;;;;;;;24.17;14.40;;;;;;;2.70;100.00;103363.75;5044667;28;20385;-76
2024/01/12 11:01:00;;;;;;;25.52;14.05;;;;;;;2.80;100.00;103384.28;5052781;28;20025;-77